Time;durP1;ratioP1;P1;durP2;ratioP2;P2;SDS_P1;SDS_P2;PMS_P1;PMS_P2;Temp;Humidity;BMP_temperature;BMP_pressure;BME280_temperature;BME280_humidity;BME280_pressure;Samples;Min_cycle;Max_cycle;Signal;HPM_P1;HPM_P2
2021/01/05 00:02:08;;;;;;;8.32;3.75;;;2.40;87.10;;;;;;4873492;29;20068;-82
2021/01/05 00:04:41;;;;;;;9.35;4.35;;;2.40;87.20;;;;;;4848851;29;20073;-83
2021/01/05 00:07:10;;;;;;;7.32;2.90;;;2.40;87.20;;;;;;4867414;29;20049;-84
2021/01/05 00:09:38;;;;;;;10.45;3.85;;;2.40;87.30;;;;;;4854615;29;20458;-84
2021/01/05 00:12:09;;;;;;;8.93;3.45;;;2.40;87.30;;;;;;4854601;29;20236;-82
2021/01/05 00:14:42;;;;;;;7.00;2.78;;;2.50;87.40;;;;;;4872483;29;20073;-82
2021/01/05 00:17:12;;;;;;;7.57;4.00;;;2.40;87.40;;;;;;4873187;29;20241;-82
2021/01/05 00:19:42;;;;;;;8.00;3.97;;;2.40;87.30;;;;;;4854451;29;21938;-84
2021/01/05 00:22:10;;;;;;;10.18;4.55;;;2.30;87.70;;;;;;4869252;29;20053;-82
2021/01/05 00:24:39;;;;;;;12.75;4.50;;;2.30;87.80;;;;;;4839202;29;20084;-84
2021/01/05 00:27:13;;;;;;;7.47;3.33;;;2.30;87.80;;;;;;4873931;29;20065;-82
2021/01/05 00:29:42;;;;;;;8.15;3.78;;;2.30;87.70;;;;;;4854144;29;20054;-83
2021/01/05 00:32:15;;;;;;;8.98;3.47;;;2.30;87.70;;;;;;4854381;29;20082;-82
2021/01/05 00:34:45;;;;;;;8.02;2.95;;;2.40;87.70;;;;;;4850920;29;20121;-82
2021/01/05 00:37:14;;;;;;;9.65;3.60;;;2.40;87.60;;;;;;4871819;29;20075;-83
2021/01/05 00:39:43;;;;;;;7.35;3.53;;;2.40;87.60;;;;;;4869175;29;20061;-84
2021/01/05 00:42:13;;;;;;;7.60;3.13;;;2.40;87.50;;;;;;4839020;29;20064;-83
2021/01/05 00:44:42;;;;;;;7.13;2.95;;;2.40;87.50;;;;;;4841309;29;20061;-82
2021/01/05 00:47:10;;;;;;;8.55;4.20;;;2.40;87.50;;;;;;4870116;29;20081;-83
2021/01/05 00:49:38;;;;;;;8.10;3.13;;;2.40;87.50;;;;;;4869304;29;20327;-84
2021/01/05 00:52:14;;;;;;;6.40;3.75;;;2.40;87.50;;;;;;4855019;29;20337;-83
2021/01/05 00:54:43;;;;;;;9.50;3.80;;;2.40;87.60;;;;;;4854709;29;20069;-81
2021/01/05 00:57:13;;;;;;;8.32;3.42;;;2.40;87.50;;;;;;4864165;29;20102;-81
2021/01/05 00:59:49;;;;;;;8.77;3.38;;;2.40;87.40;;;;;;4872007;29;20045;-80
2021/01/05 01:02:18;;;;;;;7.43;3.50;;;2.40;87.30;;;;;;4849278;29;20408;-83
2021/01/05 01:04:52;;;;;;;7.28;2.72;;;2.40;87.30;;;;;;4854714;29;20688;-83
2021/01/05 01:07:22;;;;;;;8.00;3.25;;;2.50;87.20;;;;;;4852185;29;20109;-81
2021/01/05 01:09:50;;;;;;;9.20;3.38;;;2.50;87.10;;;;;;4857146;29;20056;-81
2021/01/05 01:12:22;;;;;;;9.52;3.28;;;2.50;87.00;;;;;;4852661;29;20113;-84
2021/01/05 01:14:56;;;;;;;8.25;3.67;;;2.40;87.20;;;;;;4873463;29;20049;-82
2021/01/05 01:17:27;;;;;;;8.13;3.72;;;2.40;87.00;;;;;;4860171;29;20063;-83
2021/01/05 01:19:58;;;;;;;12.07;4.10;;;2.40;87.30;;;;;;4865064;29;20256;-81
2021/01/05 01:22:30;;;;;;;6.15;3.15;;;2.40;87.50;;;;;;4876179;29;20116;-84
2021/01/05 01:25:10;;;;;;;8.38;3.30;;;2.50;87.30;;;;;;4885537;29;20125;-83
2021/01/05 01:27:39;;;;;;;10.48;3.20;;;2.50;87.30;;;;;;4885271;29;20065;-85
2021/01/05 01:30:13;;;;;;;7.77;3.63;;;2.50;87.10;;;;;;4889751;29;20072;-84
2021/01/05 01:32:53;;;;;;;7.90;3.42;;;2.60;87.00;;;;;;4864415;29;20062;-83
2021/01/05 01:35:25;;;;;;;9.65;3.63;;;2.50;86.90;;;;;;4888213;29;20151;-82
2021/01/05 01:37:54;;;;;;;6.65;3.42;;;2.40;86.90;;;;;;4887685;29;20321;-83
2021/01/05 01:40:31;;;;;;;7.82;3.35;;;2.40;87.40;;;;;;4871001;29;20049;-85
2021/01/05 01:43:03;;;;;;;8.10;3.65;;;2.40;87.30;;;;;;4873266;29;20139;-82
2021/01/05 01:45:44;;;;;;;5.75;2.88;;;2.40;86.80;;;;;;4890964;29;20053;-84
2021/01/05 01:48:18;;;;;;;7.63;3.30;;;2.50;86.40;;;;;;4872961;29;20056;-82
2021/01/05 01:50:54;;;;;;;8.63;3.80;;;2.50;86.30;;;;;;4876037;29;20371;-83
2021/01/05 01:53:48;;;;;;;8.15;3.22;;;2.60;86.00;;;;;;4869424;29;20061;-85
2021/01/05 01:56:39;;;;;;;6.38;3.42;;;2.60;85.80;;;;;;4869719;29;20057;-84
2021/01/05 01:59:58;;;;;;;6.18;3.00;;;2.70;85.10;;;;;;4883674;29;20052;-83
2021/01/05 02:02:57;;;;;;;9.98;3.38;;;2.60;85.60;;;;;;4885370;29;20064;-82
2021/01/05 02:05:33;;;;;;;9.25;3.40;;;2.60;85.30;;;;;;4873072;29;20067;-82
2021/01/05 02:08:14;;;;;;;6.00;2.72;;;2.60;85.70;;;;;;4884335;29;20376;-81
2021/01/05 02:10:54;;;;;;;6.47;3.28;;;2.70;85.60;;;;;;4886626;29;20058;-83
2021/01/05 02:14:00;;;;;;;8.05;3.25;;;2.70;85.40;;;;;;4865299;29;20314;-82
2021/01/05 02:16:50;;;;;;;5.72;2.70;;;2.70;85.20;;;;;;4841768;29;20078;-82
2021/01/05 02:19:31;;;;;;;7.72;3.20;;;2.70;85.20;;;;;;4852408;29;20131;-82
2021/01/05 02:22:24;;;;;;;5.20;2.47;;;2.60;85.20;;;;;;4871277;29;20086;-83
2021/01/05 02:25:03;;;;;;;7.10;2.85;;;2.60;85.70;;;;;;4863635;29;20117;-85
2021/01/05 02:27:43;;;;;;;6.05;2.60;;;2.60;85.50;;;;;;4844623;29;20229;-84
2021/01/05 02:30:18;;;;;;;4.93;2.33;;;2.60;85.50;;;;;;4869435;29;20053;-84
2021/01/05 02:32:55;;;;;;;8.23;3.72;;;2.60;85.50;;;;;;4834714;29;20061;-84
2021/01/05 02:35:56;;;;;;;5.72;2.45;;;2.70;85.50;;;;;;4873621;29;20076;-81
2021/01/05 02:39:03;;;;;;;7.35;2.78;;;2.70;85.30;;;;;;4854807;29;20060;-83
2021/01/05 02:42:11;;;;;;;6.22;2.20;;;2.70;85.20;;;;;;4870747;29;20042;-81
2021/01/05 02:45:06;;;;;;;4.20;2.20;;;2.60;85.20;;;;;;4869149;29;20053;-82
2021/01/05 02:48:29;;;;;;;6.80;2.53;;;2.60;85.40;;;;;;4870094;29;20253;-81
2021/01/05 02:51:32;;;;;;;5.68;2.20;;;2.60;85.40;;;;;;4847993;29;20132;-81
2021/01/05 02:54:58;;;;;;;7.95;2.88;;;2.60;85.30;;;;;;4862898;29;20417;-81
2021/01/05 02:57:59;;;;;;;7.28;3.20;;;2.60;85.80;;;;;;4854007;29;20057;-83
2021/01/05 03:01:20;;;;;;;5.45;2.38;;;2.50;85.90;;;;;;4869791;29;20061;-83
2021/01/05 03:04:08;;;;;;;6.50;2.33;;;2.50;85.90;;;;;;4868880;29;20061;-85
2021/01/05 03:06:59;;;;;;;;;;;2.50;86.30;;;;;;4833709;29;20096;-83
2021/01/05 03:10:13;;;;;;;5.35;2.70;;;2.60;86.50;;;;;;4864055;29;19935;-85
2021/01/05 03:13:42;;;;;;;5.90;2.80;;;2.60;85.60;;;;;;4865663;29;20054;-82
2021/01/05 03:16:33;;;;;;;8.40;3.17;;;2.70;85.30;;;;;;4866918;29;20049;-82
2021/01/05 03:19:36;;;;;;;7.10;3.22;;;2.70;85.40;;;;;;4851214;29;20257;-82
2021/01/05 03:22:40;;;;;;;5.93;2.85;;;2.80;85.20;;;;;;4868754;29;20326;-82
2021/01/05 03:25:32;;;;;;;6.70;3.08;;;2.80;84.80;;;;;;4862441;29;20214;-83
2021/01/05 03:28:24;;;;;;;4.07;2.03;;;2.80;85.20;;;;;;4868372;29;20049;-82
2021/01/05 03:31:15;;;;;;;4.93;2.20;;;2.80;85.00;;;;;;4870717;29;20041;-82
2021/01/05 03:34:04;;;;;;;6.25;2.20;;;2.70;85.20;;;;;;4847934;29;20150;-84
2021/01/05 03:36:51;;;;;;;9.10;3.17;;;2.80;85.20;;;;;;4867166;29;20049;-82
2021/01/05 03:39:37;;;;;;;6.90;2.80;;;2.70;85.30;;;;;;4869663;29;20076;-83
2021/01/05 03:42:22;;;;;;;5.65;2.40;;;2.70;85.40;;;;;;4865878;29;20086;-83
2021/01/05 03:45:09;;;;;;;8.02;2.83;;;2.80;85.40;;;;;;4869431;29;20574;-83
2021/01/05 03:47:55;;;;;;;8.30;2.80;;;2.70;85.50;;;;;;4869558;29;20081;-83
2021/01/05 03:50:42;;;;;;;6.00;2.55;;;2.70;85.60;;;;;;4847803;29;20136;-83
2021/01/05 03:53:28;;;;;;;5.57;2.28;;;2.80;85.50;;;;;;4867377;29;20049;-83
2021/01/05 03:56:14;;;;;;;4.85;2.53;;;2.80;85.50;;;;;;4851390;29;20436;-83
2021/01/05 03:59:01;;;;;;;7.80;3.75;;;2.80;85.40;;;;;;4872443;29;20057;-84
2021/01/05 04:01:52;;;;;;;6.40;2.90;;;2.80;85.50;;;;;;4851695;29;20126;-83
2021/01/05 04:04:19;;;;;;;11.88;3.40;;;2.80;85.30;;;;;;4867661;29;20081;-84
2021/01/05 04:06:47;;;;;;;7.30;3.78;;;2.80;85.50;;;;;;4855352;29;20057;-82
2021/01/05 04:09:15;;;;;;;8.00;3.35;;;2.80;85.40;;;;;;4845645;29;20069;-83
2021/01/05 04:11:43;;;;;;;8.13;3.13;;;2.80;85.20;;;;;;4866982;29;20072;-82
2021/01/05 04:14:11;;;;;;;9.90;2.97;;;2.80;85.40;;;;;;4871131;29;20098;-83
2021/01/05 04:16:38;;;;;;;9.00;3.42;;;2.70;85.70;;;;;;4855258;29;20056;-84
2021/01/05 04:19:04;;;;;;;7.55;3.05;;;2.70;85.60;;;;;;4865132;29;20339;-83
2021/01/05 04:21:31;;;;;;;7.18;3.60;;;2.70;85.90;;;;;;4867340;29;20054;-83
2021/01/05 04:23:58;;;;;;;10.57;4.13;;;2.80;85.70;;;;;;4851558;29;20054;-83
2021/01/05 04:26:26;;;;;;;7.07;3.25;;;2.80;85.60;;;;;;4864628;29;20062;-83
2021/01/05 04:28:53;;;;;;;9.50;3.35;;;2.80;85.50;;;;;;4869597;29;20069;-83
2021/01/05 04:31:21;;;;;;;13.90;3.50;;;2.80;85.50;;;;;;4839415;29;20363;-82
2021/01/05 04:33:48;;;;;;;7.07;2.88;;;2.80;85.50;;;;;;4851773;29;20054;-85
2021/01/05 04:36:16;;;;;;;6.95;3.58;;;2.80;85.60;;;;;;4852202;29;20045;-83
2021/01/05 04:38:43;;;;;;;8.38;3.30;;;2.80;85.50;;;;;;4865630;29;20081;-82
2021/01/05 04:41:17;;;;;;;7.55;3.65;;;2.70;85.80;;;;;;4848396;29;20053;-85
2021/01/05 04:43:52;;;;;;;8.80;2.67;;;2.80;85.60;;;;;;4865733;29;20070;-83
2021/01/05 04:46:36;;;;;;;10.23;3.83;;;2.70;86.20;;;;;;4866760;29;20086;-84
2021/01/05 04:49:17;;;;;;;9.43;3.85;;;2.70;86.30;;;;;;4862712;29;20061;-83
2021/01/05 04:51:46;;;;;;;7.93;3.20;;;2.80;86.40;;;;;;4854516;29;20399;-85
2021/01/05 04:54:20;;;;;;;8.20;3.80;;;2.80;86.40;;;;;;4867813;29;20345;-85
2021/01/05 04:57:03;;;;;;;10.82;3.72;;;2.80;86.20;;;;;;4869815;29;20127;-84
2021/01/05 04:59:38;;;;;;;9.73;3.97;;;2.80;86.40;;;;;;4871641;29;20081;-83
2021/01/05 05:02:18;;;;;;;7.68;3.30;;;2.80;86.30;;;;;;4854261;29;20057;-84
2021/01/05 05:04:55;;;;;;;8.60;4.03;;;2.70;86.70;;;;;;4852032;29;20068;-86
2021/01/05 05:07:33;;;;;;;9.45;3.33;;;2.70;87.00;;;;;;4843241;29;20055;-83
2021/01/05 05:10:06;;;;;;;10.30;3.63;;;2.70;87.20;;;;;;4849859;29;20058;-85
2021/01/05 05:12:43;;;;;;;8.55;3.65;;;2.70;87.10;;;;;;4865854;29;20448;-82
2021/01/05 05:15:32;;;;;;;13.95;4.60;;;2.70;87.10;;;;;;4869203;29;20214;-81
2021/01/05 05:18:07;;;;;;;11.45;4.07;;;2.80;87.00;;;;;;4867851;29;20145;-81
2021/01/05 05:21:09;;;;;;;8.02;3.08;;;2.80;86.90;;;;;;4852052;29;20061;-81
2021/01/05 05:24:02;;;;;;;6.53;3.28;;;2.70;87.60;;;;;;4867367;29;20348;-84
2021/01/05 05:26:39;;;;;;;7.03;3.33;;;2.70;87.50;;;;;;4871251;29;20052;-82
2021/01/05 05:29:16;;;;;;;8.25;3.15;;;2.70;87.40;;;;;;4855099;29;20056;-82
2021/01/05 05:31:46;;;;;;;11.13;4.78;;;2.70;87.40;;;;;;4858399;29;20062;-83
2021/01/05 05:34:24;;;;;;;10.80;4.38;;;2.70;87.10;;;;;;4869927;29;20376;-85
2021/01/05 05:36:59;;;;;;;8.70;4.15;;;2.70;87.50;;;;;;4873089;29;20053;-82
2021/01/05 05:39:50;;;;;;;11.77;4.18;;;2.70;87.80;;;;;;4833884;29;20281;-82
2021/01/05 05:42:37;;;;;;;12.57;4.20;;;2.70;87.70;;;;;;4870658;29;20061;-81
2021/01/05 05:45:08;;;;;;;9.45;3.67;;;2.70;87.80;;;;;;4853849;29;20066;-83
2021/01/05 05:47:39;;;;;;;;;;;2.70;87.80;;;;;;4855751;29;20080;-81
2021/01/05 05:50:09;;;;;;;;;;;2.70;87.80;;;;;;4868711;29;19920;-82
2021/01/05 05:52:43;;;;;;;8.90;3.55;;;2.70;87.90;;;;;;4846575;29;19928;-83
2021/01/05 05:55:23;;;;;;;8.02;3.72;;;2.80;88.00;;;;;;4853045;29;20105;-83
2021/01/05 05:57:51;;;;;;;11.05;3.65;;;2.70;88.60;;;;;;4871587;29;20041;-81
2021/01/05 06:00:33;;;;;;;12.73;3.83;;;2.70;88.40;;;;;;4867558;29;20252;-83
2021/01/05 06:03:04;;;;;;;9.88;3.20;;;2.70;88.60;;;;;;4847048;29;20120;-83
2021/01/05 06:05:34;;;;;;;9.23;3.85;;;2.80;88.30;;;;;;4868647;29;20052;-83
2021/01/05 06:08:07;;;;;;;10.18;4.35;;;2.80;88.30;;;;;;4867989;29;20612;-83
2021/01/05 06:10:34;;;;;;;9.60;4.00;;;2.80;88.20;;;;;;4850200;29;20060;-83
2021/01/05 06:13:01;;;;;;;10.52;3.75;;;2.80;88.20;;;;;;4865723;29;20056;-83
2021/01/05 06:15:33;;;;;;;9.65;4.03;;;2.80;88.10;;;;;;4856509;29;20068;-85
2021/01/05 06:18:02;;;;;;;5.47;2.90;;;2.70;88.60;;;;;;4866020;29;20372;-83
2021/01/05 06:20:29;;;;;;;10.65;5.20;;;2.80;88.50;;;;;;4835842;29;20057;-83
2021/01/05 06:22:57;;;;;;;12.35;4.45;;;2.80;88.30;;;;;;4859836;29;20457;-82
2021/01/05 06:25:25;;;;;;;9.80;4.22;;;2.70;88.60;;;;;;4867065;29;20068;-83
2021/01/05 06:27:52;;;;;;;10.52;3.70;;;2.70;89.20;;;;;;4872876;29;20313;-84
2021/01/05 06:30:21;;;;;;;9.55;3.50;;;2.70;88.90;;;;;;4843182;29;20053;-83
2021/01/05 06:32:48;;;;;;;14.07;3.92;;;2.70;88.60;;;;;;4853610;29;20105;-82
2021/01/05 06:35:18;;;;;;;10.40;4.20;;;2.70;89.00;;;;;;4868441;29;20068;-83
2021/01/05 06:37:45;;;;;;;10.27;4.10;;;2.60;89.30;;;;;;4854106;29;20089;-83
2021/01/05 06:40:13;;;;;;;11.73;3.83;;;2.60;89.70;;;;;;4865372;29;20053;-83
2021/01/05 06:42:40;;;;;;;10.68;4.50;;;2.70;89.40;;;;;;4873469;29;20053;-83
2021/01/05 06:45:10;;;;;;;7.43;3.33;;;2.70;89.10;;;;;;4864218;29;20068;-82
2021/01/05 06:47:37;;;;;;;8.95;4.38;;;2.70;89.20;;;;;;4855485;29;20049;-83
2021/01/05 06:50:06;;;;;;;8.60;3.92;;;2.70;88.80;;;;;;4872654;29;20061;-84
2021/01/05 06:52:34;;;;;;;10.88;4.20;;;2.60;89.40;;;;;;4851935;29;20057;-83
2021/01/05 06:55:03;;;;;;;6.85;3.03;;;2.60;89.80;;;;;;4852255;29;20058;-83
2021/01/05 06:57:31;;;;;;;10.55;4.45;;;2.50;90.40;;;;;;4848975;29;20068;-82
2021/01/05 06:59:57;;;;;;;9.90;5.32;;;2.60;89.90;;;;;;4866265;29;20060;-82
2021/01/05 07:02:24;;;;;;;9.85;4.22;;;2.60;89.80;;;;;;4865113;29;20314;-82
2021/01/05 07:04:51;;;;;;;10.68;4.53;;;2.70;89.90;;;;;;4867390;29;20065;-81
2021/01/05 07:07:18;;;;;;;7.07;3.25;;;2.70;89.10;;;;;;4856670;29;20256;-81
2021/01/05 07:09:46;;;;;;;11.50;4.50;;;2.70;89.00;;;;;;4865956;29;20267;-83
2021/01/05 07:12:12;;;;;;;7.60;3.05;;;2.70;89.10;;;;;;4867260;29;20057;-81
2021/01/05 07:14:40;;;;;;;11.40;4.00;;;2.60;89.10;;;;;;4867297;29;20056;-82
2021/01/05 07:17:08;;;;;;;8.68;4.15;;;2.60;89.20;;;;;;4857762;29;20050;-82
2021/01/05 07:19:35;;;;;;;9.30;4.38;;;2.60;89.10;;;;;;4847178;29;20152;-84
2021/01/05 07:22:02;;;;;;;11.57;5.32;;;2.70;89.20;;;;;;4867063;29;20381;-82
2021/01/05 07:24:29;;;;;;;10.27;4.50;;;2.60;89.30;;;;;;4843854;29;20121;-82
2021/01/05 07:26:57;;;;;;;9.10;4.18;;;2.60;89.60;;;;;;4846031;29;20055;-83
2021/01/05 07:29:24;;;;;;;8.00;4.25;;;2.60;89.70;;;;;;4849590;29;20098;-82
2021/01/05 07:31:52;;;;;;;9.00;4.07;;;2.60;89.90;;;;;;4863569;29;20045;-81
2021/01/05 07:34:19;;;;;;;8.02;3.08;;;2.60;90.20;;;;;;4855784;29;20238;-84
2021/01/05 07:36:50;;;;;;;14.15;4.32;;;2.70;89.70;;;;;;4859417;29;20112;-84
2021/01/05 07:39:24;;;;;;;9.30;3.95;;;2.90;88.80;;;;;;4863869;29;21151;-82
2021/01/05 07:41:52;;;;;;;10.55;4.53;;;2.80;88.90;;;;;;4849039;29;20041;-84
2021/01/05 07:44:21;;;;;;;9.20;4.45;;;2.90;88.20;;;;;;4828467;29;20087;-83
2021/01/05 07:46:56;;;;;;;8.85;4.03;;;2.80;88.10;;;;;;4850724;29;20057;-83
2021/01/05 07:49:23;;;;;;;8.70;4.38;;;2.90;88.10;;;;;;4865356;29;20365;-85
2021/01/05 07:51:50;;;;;;;9.57;3.55;;;2.90;88.00;;;;;;4862579;29;20045;-83
2021/01/05 07:54:17;;;;;;;12.10;4.03;;;2.80;88.10;;;;;;4866709;29;20229;-81
2021/01/05 07:56:44;;;;;;;9.63;4.22;;;2.80;88.20;;;;;;4861452;29;20065;-81
2021/01/05 07:59:11;;;;;;;8.57;4.35;;;2.80;88.10;;;;;;4851738;29;20440;-83
2021/01/05 08:01:39;;;;;;;10.77;4.60;;;2.80;88.10;;;;;;4838482;29;20351;-83
2021/01/05 08:04:06;;;;;;;10.90;4.32;;;2.80;88.20;;;;;;4868639;29;20292;-83
2021/01/05 08:06:33;;;;;;;10.13;4.22;;;2.80;88.30;;;;;;4870788;29;20061;-83
2021/01/05 08:08:59;;;;;;;10.25;4.85;;;2.80;88.30;;;;;;4834114;29;20057;-83
2021/01/05 08:11:35;;;;;;;15.48;4.15;;;2.90;88.50;;;;;;4851834;29;20046;-83
2021/01/05 08:14:04;;;;;;;10.30;4.07;;;3.00;88.10;;;;;;4829388;29;20155;-83
2021/01/05 08:16:32;;;;;;;9.40;4.10;;;3.00;87.60;;;;;;4856085;29;20058;-82
2021/01/05 08:19:02;;;;;;;11.18;3.67;;;3.10;87.70;;;;;;4834189;29;20421;-83
2021/01/05 08:21:29;;;;;;;11.93;5.13;;;3.10;87.70;;;;;;4847298;29;20094;-83
2021/01/05 08:23:56;;;;;;;10.15;4.55;;;3.10;87.70;;;;;;4862606;29;20117;-84
2021/01/05 08:26:22;;;;;;;9.02;4.65;;;3.20;87.40;;;;;;4849142;29;20069;-83
2021/01/05 08:28:49;;;;;;;12.10;4.50;;;3.20;87.10;;;;;;4847316;29;20074;-81
2021/01/05 08:31:17;;;;;;;9.43;3.78;;;3.30;86.70;;;;;;4865675;29;20046;-82
2021/01/05 08:33:45;;;;;;;12.98;4.60;;;3.30;86.90;;;;;;4870259;29;20065;-85
2021/01/05 08:36:13;;;;;;;8.98;3.83;;;3.30;86.60;;;;;;4870288;29;20221;-83
2021/01/05 08:38:40;;;;;;;9.93;3.80;;;3.20;86.80;;;;;;4871617;29;20065;-82
2021/01/05 08:41:07;;;;;;;10.77;3.85;;;3.30;86.90;;;;;;4850293;29;20056;-83
2021/01/05 08:43:33;;;;;;;6.10;2.67;;;3.20;86.10;;;;;;4853544;29;20080;-83
2021/01/05 08:46:00;;;;;;;9.80;3.13;;;3.20;86.30;;;;;;4868170;29;20069;-84
2021/01/05 08:48:28;;;;;;;8.80;3.78;;;3.20;86.50;;;;;;4881170;29;20048;-83
2021/01/05 08:50:55;;;;;;;7.28;3.60;;;3.30;86.40;;;;;;4869755;29;20124;-83
2021/01/05 08:53:25;;;;;;;11.43;4.30;;;3.30;85.80;;;;;;4866712;29;20058;-81
2021/01/05 08:55:52;;;;;;;8.95;3.78;;;3.30;86.00;;;;;;4869695;29;20191;-81
2021/01/05 08:58:19;;;;;;;5.38;3.38;;;3.40;85.10;;;;;;4856157;29;20061;-81
2021/01/05 09:00:46;;;;;;;10.75;3.95;;;3.40;85.00;;;;;;4853378;29;20037;-84
2021/01/05 09:03:13;;;;;;;8.07;3.17;;;3.40;85.80;;;;;;4839682;29;20053;-82
2021/01/05 09:05:41;;;;;;;9.77;3.58;;;3.40;85.80;;;;;;4849125;29;20046;-84
2021/01/05 09:08:08;;;;;;;9.43;4.05;;;3.30;85.80;;;;;;4868829;29;20060;-83
2021/01/05 09:10:35;;;;;;;6.32;2.70;;;3.40;86.00;;;;;;4867258;29;20119;-82
2021/01/05 09:13:02;;;;;;;7.25;2.80;;;3.30;85.80;;;;;;4854793;29;20189;-82
2021/01/05 09:15:29;;;;;;;6.72;3.30;;;3.30;85.90;;;;;;4839448;29;20057;-82
2021/01/05 09:17:56;;;;;;;7.57;3.10;;;3.40;86.00;;;;;;4856876;29;20061;-83
2021/01/05 09:20:25;;;;;;;6.10;2.72;;;3.40;85.10;;;;;;4871120;29;20053;-81
2021/01/05 09:22:54;;;;;;;7.57;2.90;;;3.40;85.30;;;;;;4872371;29;20057;-82
2021/01/05 09:25:22;;;;;;;7.97;3.35;;;3.50;84.40;;;;;;4854555;29;20050;-83
2021/01/05 09:27:52;;;;;;;7.28;2.75;;;3.40;85.20;;;;;;4868487;29;20287;-86
2021/01/05 09:30:21;;;;;;;7.20;3.67;;;3.40;85.30;;;;;;4849363;29;20053;-81
2021/01/05 09:32:50;;;;;;;6.30;2.75;;;3.50;84.90;;;;;;4852675;29;20045;-84
2021/01/05 09:35:17;;;;;;;6.45;2.70;;;3.50;84.90;;;;;;4853436;29;20061;-82
2021/01/05 09:37:47;;;;;;;9.52;3.00;;;3.60;84.70;;;;;;4869098;29;20064;-81
2021/01/05 09:40:16;;;;;;;6.75;2.47;;;3.70;84.30;;;;;;4851395;29;20058;-83
2021/01/05 09:42:43;;;;;;;7.70;3.17;;;3.50;84.90;;;;;;4868554;29;20404;-84
2021/01/05 09:45:12;;;;;;;8.07;3.70;;;3.70;85.10;;;;;;4874146;29;20148;-81
2021/01/05 09:47:40;;;;;;;9.55;3.88;;;3.80;84.30;;;;;;4854074;29;21912;-81
2021/01/05 09:50:09;;;;;;;9.10;4.18;;;4.00;83.90;;;;;;4861508;29;20052;-81
2021/01/05 09:52:37;;;;;;;9.80;3.47;;;4.00;83.10;;;;;;4850661;29;20050;-81
2021/01/05 09:55:06;;;;;;;7.25;3.28;;;4.00;83.30;;;;;;4869201;29;20089;-82
2021/01/05 09:57:33;;;;;;;7.15;3.08;;;4.00;83.50;;;;;;4865511;29;20053;-83
2021/01/05 10:00:00;;;;;;;7.68;3.85;;;4.00;83.90;;;;;;4864744;29;20055;-82
2021/01/05 10:02:33;;;;;;;6.03;2.88;;;4.00;83.70;;;;;;4849424;29;20134;-79
2021/01/05 10:05:00;;;;;;;8.57;2.65;;;4.10;83.50;;;;;;4849597;29;20057;-80
2021/01/05 10:07:28;;;;;;;7.72;2.55;;;4.10;83.70;;;;;;4847586;29;20068;-81
2021/01/05 10:09:55;;;;;;;4.57;2.35;;;4.10;82.30;;;;;;4866911;29;20076;-84
2021/01/05 10:12:22;;;;;;;6.50;3.45;;;4.10;82.90;;;;;;4863178;29;20175;-82
2021/01/05 10:14:50;;;;;;;6.88;3.10;;;4.10;82.80;;;;;;4850190;29;20117;-81
2021/01/05 10:17:16;;;;;;;9.68;4.55;;;4.20;82.40;;;;;;4870224;29;20225;-81
2021/01/05 10:19:44;;;;;;;7.78;3.72;;;4.20;82.90;;;;;;4869698;29;20053;-81
2021/01/05 10:22:11;;;;;;;8.55;3.50;;;4.40;82.50;;;;;;4849448;29;21126;-81
2021/01/05 10:24:38;;;;;;;7.53;4.22;;;4.40;82.90;;;;;;4867605;29;20360;-81
2021/01/05 10:27:06;;;;;;;6.85;2.72;;;4.40;82.40;;;;;;4867139;29;20226;-82
2021/01/05 10:29:33;;;;;;;8.98;3.63;;;4.50;81.70;;;;;;4870922;29;20064;-83
2021/01/05 10:32:01;;;;;;;9.25;3.67;;;4.50;82.00;;;;;;4863643;29;20053;-82
2021/01/05 10:34:28;;;;;;;8.00;3.17;;;4.50;82.40;;;;;;4863133;29;20054;-84
2021/01/05 10:36:58;;;;;;;10.32;3.33;;;4.40;83.00;;;;;;4849442;29;20471;-81
2021/01/05 10:39:27;;;;;;;9.40;3.77;;;4.20;82.90;;;;;;4856716;29;20057;-83
2021/01/05 10:41:54;;;;;;;13.00;2.85;;;4.20;82.90;;;;;;4830977;29;20249;-80
2021/01/05 10:44:23;;;;;;;10.98;3.22;;;4.20;83.30;;;;;;4851544;29;20049;-82
2021/01/05 10:46:50;;;;;;;7.93;3.60;;;4.30;83.30;;;;;;4833690;29;20059;-82
2021/01/05 10:49:17;;;;;;;11.27;3.92;;;4.30;82.60;;;;;;4866283;29;20072;-82
2021/01/05 10:51:46;;;;;;;8.70;3.50;;;4.30;82.10;;;;;;4868614;29;20053;-83
2021/01/05 10:54:13;;;;;;;8.20;3.90;;;4.20;83.00;;;;;;4851440;29;20058;-83
2021/01/05 10:56:40;;;;;;;11.02;4.68;;;4.40;83.30;;;;;;4838795;29;20056;-83
2021/01/05 10:59:08;;;;;;;8.32;3.40;;;4.60;82.40;;;;;;4852341;29;20053;-82
2021/01/05 11:01:35;;;;;;;10.77;4.22;;;4.70;82.40;;;;;;4848773;29;20056;-81
2021/01/05 11:04:03;;;;;;;9.32;4.10;;;4.90;82.00;;;;;;4863902;29;20068;-83
2021/01/05 11:06:30;;;;;;;9.15;3.30;;;5.40;81.00;;;;;;4868393;29;20046;-81
2021/01/05 11:08:57;;;;;;;8.73;3.50;;;6.00;79.80;;;;;;4863829;29;20061;-82
2021/01/05 11:11:25;;;;;;;9.13;4.15;;;6.50;76.40;;;;;;4845294;29;20345;-80
2021/01/05 11:13:52;;;;;;;9.38;3.83;;;6.50;75.40;;;;;;4863249;29;20065;-82
2021/01/05 11:16:19;;;;;;;9.30;4.30;;;6.30;76.10;;;;;;4862330;29;20112;-82
2021/01/05 11:18:45;;;;;;;10.57;4.40;;;6.20;75.50;;;;;;4847042;29;20447;-80
2021/01/05 11:21:14;;;;;;;7.78;3.95;;;5.90;77.40;;;;;;4867963;29;20049;-81
2021/01/05 11:23:41;;;;;;;8.70;3.38;;;5.70;77.90;;;;;;4864517;29;20237;-83
2021/01/05 11:26:09;;;;;;;10.38;3.78;;;5.50;78.40;;;;;;4864749;29;20419;-84
2021/01/05 11:28:38;;;;;;;9.00;3.30;;;5.30;79.10;;;;;;4865110;29;20076;-82
2021/01/05 11:31:06;;;;;;;8.98;3.63;;;5.30;79.00;;;;;;4847630;29;20117;-82
2021/01/05 11:33:33;;;;;;;8.15;3.53;;;5.50;79.10;;;;;;4842428;29;20057;-82
2021/01/05 11:36:02;;;;;;;8.07;3.88;;;5.60;78.70;;;;;;4849442;29;20081;-80
2021/01/05 11:38:30;;;;;;;8.93;4.45;;;5.30;79.60;;;;;;4862281;29;20109;-81
2021/01/05 11:40:57;;;;;;;9.13;3.50;;;5.30;79.10;;;;;;4847566;29;20057;-82
2021/01/05 11:43:24;;;;;;;7.75;3.47;;;5.30;79.30;;;;;;4866808;29;20298;-79
2021/01/05 11:45:52;;;;;;;7.28;3.55;;;5.60;79.70;;;;;;4832102;29;20541;-83
2021/01/05 11:48:20;;;;;;;7.32;2.90;;;5.80;77.70;;;;;;4866832;29;20065;-81
2021/01/05 11:50:47;;;;;;;7.45;3.15;;;6.00;77.30;;;;;;4864271;29;20060;-81
2021/01/05 11:53:16;;;;;;;13.50;3.60;;;6.10;76.90;;;;;;4868986;29;20336;-80
2021/01/05 11:55:43;;;;;;;9.25;3.35;;;6.20;76.60;;;;;;4847211;29;20057;-80
2021/01/05 11:58:09;;;;;;;9.25;2.83;;;6.00;75.80;;;;;;4863794;29;20057;-80
2021/01/05 12:00:37;;;;;;;6.25;2.95;;;6.10;76.40;;;;;;4861343;29;20064;-79
2021/01/05 12:03:05;;;;;;;5.88;2.25;;;7.10;83.30;;;;;;4864930;29;20286;-80
2021/01/05 12:05:31;;;;;;;5.72;2.40;;;8.20;79.40;;;;;;4848822;29;20097;-80
2021/01/05 12:07:58;;;;;;;11.18;2.60;;;8.90;75.20;;;;;;4834793;29;20065;-82
2021/01/05 12:10:26;;;;;;;12.75;3.05;;;9.00;73.30;;;;;;4850703;29;20102;-81
2021/01/05 12:12:54;;;;;;;6.57;3.25;;;9.20;73.00;;;;;;4848522;29;20072;-80
2021/01/05 12:15:21;;;;;;;6.03;2.58;;;9.00;66.30;;;;;;4867575;29;20069;-80
2021/01/05 12:17:47;;;;;;;5.78;2.38;;;8.90;71.10;;;;;;4869402;29;20065;-81
2021/01/05 12:20:16;;;;;;;8.70;2.50;;;8.90;69.90;;;;;;4868147;29;20065;-80
2021/01/05 12:22:43;;;;;;;11.02;2.90;;;9.10;69.60;;;;;;4855615;29;20057;-81
2021/01/05 12:25:11;;;;;;;6.47;2.53;;;9.20;68.50;;;;;;4867368;29;20061;-81
2021/01/05 12:27:38;;;;;;;7.22;3.05;;;8.80;67.10;;;;;;4854261;29;20057;-80
2021/01/05 12:30:06;;;;;;;6.72;3.20;;;8.70;66.70;;;;;;4835536;29;20105;-79
2021/01/05 12:33:29;;;;;;;5.45;2.50;;;8.80;67.20;;;;;;4837895;29;20058;-80
2021/01/05 12:35:57;;;;;;;7.38;3.13;;;8.70;65.10;;;;;;4860130;29;20103;-80
2021/01/05 12:38:24;;;;;;;5.85;2.60;;;8.10;69.30;;;;;;4855328;29;20359;-80
2021/01/05 12:40:51;;;;;;;8.50;2.97;;;8.40;68.30;;;;;;4866941;29;20061;-81
2021/01/05 12:43:18;;;;;;;4.55;2.22;;;8.70;68.50;;;;;;4853971;29;20410;-83
2021/01/05 12:45:45;;;;;;;5.40;2.60;;;9.20;63.30;;;;;;4867098;29;20179;-82
2021/01/05 12:48:12;;;;;;;6.85;2.30;;;9.30;66.40;;;;;;4866302;29;20252;-83
2021/01/05 12:50:38;;;;;;;5.35;2.78;;;9.40;66.20;;;;;;4866740;29;20269;-81
2021/01/05 12:53:08;;;;;;;5.05;2.33;;;9.20;63.80;;;;;;4846615;29;20057;-82
2021/01/05 12:55:35;;;;;;;5.27;2.43;;;9.50;62.90;;;;;;4865989;29;20484;-83
2021/01/05 12:58:02;;;;;;;5.00;2.45;;;9.30;65.00;;;;;;4866457;29;20140;-82
2021/01/05 13:00:32;;;;;;;7.38;3.22;;;9.20;65.50;;;;;;4866201;29;20061;-83
2021/01/05 13:02:59;;;;;;;7.78;3.10;;;9.00;63.20;;;;;;4854870;29;20085;-82
2021/01/05 13:05:26;;;;;;;5.07;2.42;;;8.10;67.80;;;;;;4863989;29;20061;-81
2021/01/05 13:07:54;;;;;;;5.75;2.50;;;7.80;69.00;;;;;;4868247;29;20065;-80
2021/01/05 13:10:23;;;;;;;6.30;2.42;;;8.20;66.20;;;;;;4848426;29;20257;-80
2021/01/05 13:12:50;;;;;;;10.13;3.05;;;8.40;66.90;;;;;;4850826;29;20050;-81
2021/01/05 13:15:18;;;;;;;6.53;2.60;;;8.10;65.80;;;;;;4865320;29;20060;-79
2021/01/05 13:17:45;;;;;;;6.95;2.42;;;7.80;68.00;;;;;;4863859;29;20129;-80
2021/01/05 13:20:12;;;;;;;7.07;2.97;;;8.00;68.70;;;;;;4867137;29;20061;-82
2021/01/05 13:22:43;;;;;;;5.72;2.15;;;8.10;67.20;;;;;;4836168;29;20061;-85
2021/01/05 13:25:11;;;;;;;6.45;2.53;;;8.20;66.20;;;;;;4868374;29;20116;-82
2021/01/05 13:27:39;;;;;;;8.60;3.10;;;7.70;67.10;;;;;;4868733;29;20233;-80